sensor_id;sensor_type;location;lat;lon;timestamp;temperature;humidity
52107;DHT22;38105;52.968;5.974;2022-07-21T00:00:25;21.30;99.90
52107;DHT22;38105;52.968;5.974;2022-07-21T00:02:51;21.20;99.90
52107;DHT22;38105;52.968;5.974;2022-07-21T00:05:18;21.20;99.90
52107;DHT22;38105;52.968;5.974;2022-07-21T00:07:44;21.10;99.90
52107;DHT22;38105;52.968;5.974;2022-07-21T00:10:10;21.10;99.90
52107;DHT22;38105;52.968;5.974;2022-07-21T00:12:36;21.00;99.90
52107;DHT22;38105;52.968;5.974;2022-07-21T00:15:03;21.00;99.90
52107;DHT22;38105;52.968;5.974;2022-07-21T00:17:29;21.00;99.90
52107;DHT22;38105;52.968;5.974;2022-07-21T00:19:54;20.90;99.90
52107;DHT22;38105;52.968;5.974;2022-07-21T00:22:20;20.90;99.90
52107;DHT22;38105;52.968;5.974;2022-07-21T00:24:46;20.80;99.90
52107;DHT22;38105;52.968;5.974;2022-07-21T00:27:11;20.50;99.90
52107;DHT22;38105;52.968;5.974;2022-07-21T00:29:37;20.60;99.90
52107;DHT22;38105;52.968;5.974;2022-07-21T00:32:03;20.50;99.90
52107;DHT22;38105;52.968;5.974;2022-07-21T00:34:31;20.60;99.90
52107;DHT22;38105;52.968;5.974;2022-07-21T00:36:57;20.60;99.90
52107;DHT22;38105;52.968;5.974;2022-07-21T00:39:22;20.70;99.90
52107;DHT22;38105;52.968;5.974;2022-07-21T00:41:48;20.70;99.90
52107;DHT22;38105;52.968;5.974;2022-07-21T00:44:25;20.70;99.90
52107;DHT22;38105;52.968;5.974;2022-07-21T00:46:53;20.50;99.90
52107;DHT22;38105;52.968;5.974;2022-07-21T00:49:19;20.50;99.90
52107;DHT22;38105;52.968;5.974;2022-07-21T00:51:46;20.70;99.90
52107;DHT22;38105;52.968;5.974;2022-07-21T00:54:13;20.50;99.90
52107;DHT22;38105;52.968;5.974;2022-07-21T00:56:40;20.50;99.90
52107;DHT22;38105;52.968;5.974;2022-07-21T00:59:05;20.50;99.90
52107;DHT22;38105;52.968;5.974;2022-07-21T01:01:31;20.30;99.90
52107;DHT22;38105;52.968;5.974;2022-07-21T01:03:57;20.30;99.90
52107;DHT22;38105;52.968;5.974;2022-07-21T01:06:25;20.20;99.90
52107;DHT22;38105;52.968;5.974;2022-07-21T01:08:52;20.50;99.90
52107;DHT22;38105;52.968;5.974;2022-07-21T01:11:20;20.30;99.90
52107;DHT22;38105;52.968;5.974;2022-07-21T01:13:47;20.30;99.90
52107;DHT22;38105;52.968;5.974;2022-07-21T01:16:13;20.20;99.90
52107;DHT22;38105;52.968;5.974;2022-07-21T01:18:39;20.40;99.90
52107;DHT22;38105;52.968;5.974;2022-07-21T01:23:50;20.00;99.90
52107;DHT22;38105;52.968;5.974;2022-07-21T01:26:15;20.00;99.90
52107;DHT22;38105;52.968;5.974;2022-07-21T01:28:41;20.10;99.90
52107;DHT22;38105;52.968;5.974;2022-07-21T01:31:06;20.10;99.90
52107;DHT22;38105;52.968;5.974;2022-07-21T01:33:32;20.10;99.90
52107;DHT22;38105;52.968;5.974;2022-07-21T01:35:58;20.10;99.90
52107;DHT22;38105;52.968;5.974;2022-07-21T01:38:23;19.90;99.90
52107;DHT22;38105;52.968;5.974;2022-07-21T01:41:07;19.80;99.90
52107;DHT22;38105;52.968;5.974;2022-07-21T01:43:52;19.90;99.90
52107;DHT22;38105;52.968;5.974;2022-07-21T01:46:17;19.80;99.90
52107;DHT22;38105;52.968;5.974;2022-07-21T01:48:44;19.70;99.90
52107;DHT22;38105;52.968;5.974;2022-07-21T01:51:10;19.90;99.90
52107;DHT22;38105;52.968;5.974;2022-07-21T01:53:36;19.70;99.90
52107;DHT22;38105;52.968;5.974;2022-07-21T01:56:02;19.90;99.90
52107;DHT22;38105;52.968;5.974;2022-07-21T01:58:29;19.90;99.90
52107;DHT22;38105;52.968;5.974;2022-07-21T02:00:55;19.60;99.90
52107;DHT22;38105;52.968;5.974;2022-07-21T02:03:21;19.60;99.90
52107;DHT22;38105;52.968;5.974;2022-07-21T02:05:47;19.80;99.90
52107;DHT22;38105;52.968;5.974;2022-07-21T02:08:12;19.90;99.90
52107;DHT22;38105;52.968;5.974;2022-07-21T02:10:38;19.80;99.90
52107;DHT22;38105;52.968;5.974;2022-07-21T02:13:04;20.00;99.90
52107;DHT22;38105;52.968;5.974;2022-07-21T02:15:30;19.90;99.90
52107;DHT22;38105;52.968;5.974;2022-07-21T02:17:56;19.80;99.90
52107;DHT22;38105;52.968;5.974;2022-07-21T02:20:22;19.90;99.90
52107;DHT22;38105;52.968;5.974;2022-07-21T02:22:48;20.00;99.90
52107;DHT22;38105;52.968;5.974;2022-07-21T02:25:13;19.80;99.90
52107;DHT22;38105;52.968;5.974;2022-07-21T02:27:40;19.80;99.90
52107;DHT22;38105;52.968;5.974;2022-07-21T02:30:06;19.80;99.90
52107;DHT22;38105;52.968;5.974;2022-07-21T02:32:32;19.90;99.90
52107;DHT22;38105;52.968;5.974;2022-07-21T02:34:58;19.90;99.90
52107;DHT22;38105;52.968;5.974;2022-07-21T02:37:23;20.00;99.90
52107;DHT22;38105;52.968;5.974;2022-07-21T02:39:49;19.80;99.90
52107;DHT22;38105;52.968;5.974;2022-07-21T02:42:15;19.90;99.90
52107;DHT22;38105;52.968;5.974;2022-07-21T02:44:40;19.90;99.90
52107;DHT22;38105;52.968;5.974;2022-07-21T02:47:06;20.10;99.90
52107;DHT22;38105;52.968;5.974;2022-07-21T02:49:32;20.10;99.90
52107;DHT22;38105;52.968;5.974;2022-07-21T02:51:58;19.90;99.90
52107;DHT22;38105;52.968;5.974;2022-07-21T02:54:23;20.10;99.90
52107;DHT22;38105;52.968;5.974;2022-07-21T02:56:49;19.90;99.90
52107;DHT22;38105;52.968;5.974;2022-07-21T02:59:16;20.10;99.90
52107;DHT22;38105;52.968;5.974;2022-07-21T03:01:42;19.80;99.90
52107;DHT22;38105;52.968;5.974;2022-07-21T03:04:08;20.00;99.90
52107;DHT22;38105;52.968;5.974;2022-07-21T03:06:33;19.90;99.90
52107;DHT22;38105;52.968;5.974;2022-07-21T03:08:59;19.70;99.90
52107;DHT22;38105;52.968;5.974;2022-07-21T03:11:25;19.90;99.90
52107;DHT22;38105;52.968;5.974;2022-07-21T03:13:51;19.90;99.90
52107;DHT22;38105;52.968;5.974;2022-07-21T03:16:17;19.90;99.90
52107;DHT22;38105;52.968;5.974;2022-07-21T03:18:43;19.60;99.90
52107;DHT22;38105;52.968;5.974;2022-07-21T03:21:09;19.90;99.90
52107;DHT22;38105;52.968;5.974;2022-07-21T03:23:34;19.80;99.90
52107;DHT22;38105;52.968;5.974;2022-07-21T03:26:00;19.90;99.90
52107;DHT22;38105;52.968;5.974;2022-07-21T03:28:25;19.60;99.90
52107;DHT22;38105;52.968;5.974;2022-07-21T03:30:51;19.70;99.90
52107;DHT22;38105;52.968;5.974;2022-07-21T03:33:17;19.90;99.90
52107;DHT22;38105;52.968;5.974;2022-07-21T03:35:43;19.80;99.90
52107;DHT22;38105;52.968;5.974;2022-07-21T03:38:08;19.40;99.90
52107;DHT22;38105;52.968;5.974;2022-07-21T03:40:35;19.40;99.90
52107;DHT22;38105;52.968;5.974;2022-07-21T03:43:03;19.40;99.90
52107;DHT22;38105;52.968;5.974;2022-07-21T03:45:31;19.30;99.90
52107;DHT22;38105;52.968;5.974;2022-07-21T03:47:58;19.30;99.90
52107;DHT22;38105;52.968;5.974;2022-07-21T03:50:25;19.30;99.90
52107;DHT22;38105;52.968;5.974;2022-07-21T03:52:51;19.40;99.90
52107;DHT22;38105;52.968;5.974;2022-07-21T03:55:17;19.30;99.90
52107;DHT22;38105;52.968;5.974;2022-07-21T03:57:55;19.40;99.90
52107;DHT22;38105;52.968;5.974;2022-07-21T04:00:30;19.40;99.90
52107;DHT22;38105;52.968;5.974;2022-07-21T04:02:56;19.10;99.90
52107;DHT22;38105;52.968;5.974;2022-07-21T04:05:23;19.30;99.90
52107;DHT22;38105;52.968;5.974;2022-07-21T04:07:49;19.30;99.90
52107;DHT22;38105;52.968;5.974;2022-07-21T04:10:17;19.10;99.90
52107;DHT22;38105;52.968;5.974;2022-07-21T04:12:43;19.00;99.90
52107;DHT22;38105;52.968;5.974;2022-07-21T04:15:10;19.30;99.90
52107;DHT22;38105;52.968;5.974;2022-07-21T04:17:36;19.20;99.90
52107;DHT22;38105;52.968;5.974;2022-07-21T04:20:03;19.10;99.90
52107;DHT22;38105;52.968;5.974;2022-07-21T04:22:29;18.90;99.90
52107;DHT22;38105;52.968;5.974;2022-07-21T04:24:55;19.20;99.90
52107;DHT22;38105;52.968;5.974;2022-07-21T04:27:20;19.20;99.90
52107;DHT22;38105;52.968;5.974;2022-07-21T04:29:46;19.00;99.90
52107;DHT22;38105;52.968;5.974;2022-07-21T04:32:12;18.90;99.90
52107;DHT22;38105;52.968;5.974;2022-07-21T04:34:37;18.90;99.90
52107;DHT22;38105;52.968;5.974;2022-07-21T04:37:03;18.90;99.90
52107;DHT22;38105;52.968;5.974;2022-07-21T04:39:29;18.90;99.90
52107;DHT22;38105;52.968;5.974;2022-07-21T04:41:55;19.10;99.90
52107;DHT22;38105;52.968;5.974;2022-07-21T04:44:21;19.10;99.90
52107;DHT22;38105;52.968;5.974;2022-07-21T04:46:46;19.00;99.90
52107;DHT22;38105;52.968;5.974;2022-07-21T04:49:12;18.90;99.90
52107;DHT22;38105;52.968;5.974;2022-07-21T04:51:38;19.00;99.90
52107;DHT22;38105;52.968;5.974;2022-07-21T04:54:03;18.90;99.90
52107;DHT22;38105;52.968;5.974;2022-07-21T04:56:29;18.90;99.90
52107;DHT22;38105;52.968;5.974;2022-07-21T04:58:56;18.90;99.90
52107;DHT22;38105;52.968;5.974;2022-07-21T05:01:21;19.00;99.90
52107;DHT22;38105;52.968;5.974;2022-07-21T05:03:47;19.10;99.90
52107;DHT22;38105;52.968;5.974;2022-07-21T05:06:13;19.20;99.90
52107;DHT22;38105;52.968;5.974;2022-07-21T05:08:38;18.90;99.90
52107;DHT22;38105;52.968;5.974;2022-07-21T05:11:04;19.00;99.90
52107;DHT22;38105;52.968;5.974;2022-07-21T05:13:29;19.10;99.90
52107;DHT22;38105;52.968;5.974;2022-07-21T05:15:55;18.90;99.90
52107;DHT22;38105;52.968;5.974;2022-07-21T05:18:21;18.90;99.90
52107;DHT22;38105;52.968;5.974;2022-07-21T05:20:46;19.10;99.90
52107;DHT22;38105;52.968;5.974;2022-07-21T05:23:12;19.20;99.90
52107;DHT22;38105;52.968;5.974;2022-07-21T05:25:38;19.30;99.90
52107;DHT22;38105;52.968;5.974;2022-07-21T05:28:05;19.10;99.90
52107;DHT22;38105;52.968;5.974;2022-07-21T05:30:31;19.20;99.90
52107;DHT22;38105;52.968;5.974;2022-07-21T05:32:56;19.00;99.90
52107;DHT22;38105;52.968;5.974;2022-07-21T05:35:22;19.20;99.90
52107;DHT22;38105;52.968;5.974;2022-07-21T05:37:48;19.00;99.90
52107;DHT22;38105;52.968;5.974;2022-07-21T05:40:14;19.10;99.90
52107;DHT22;38105;52.968;5.974;2022-07-21T05:42:40;19.10;99.90
52107;DHT22;38105;52.968;5.974;2022-07-21T05:45:06;19.10;99.90
52107;DHT22;38105;52.968;5.974;2022-07-21T05:47:32;19.40;99.90
52107;DHT22;38105;52.968;5.974;2022-07-21T05:49:58;19.20;99.90
52107;DHT22;38105;52.968;5.974;2022-07-21T05:52:24;19.40;99.90
52107;DHT22;38105;52.968;5.974;2022-07-21T05:54:50;19.40;99.90
52107;DHT22;38105;52.968;5.974;2022-07-21T05:57:16;19.40;99.90
52107;DHT22;38105;52.968;5.974;2022-07-21T05:59:44;19.20;99.90
52107;DHT22;38105;52.968;5.974;2022-07-21T06:02:10;19.30;99.90
52107;DHT22;38105;52.968;5.974;2022-07-21T06:04:35;19.50;99.90
52107;DHT22;38105;52.968;5.974;2022-07-21T06:07:01;19.20;99.90
52107;DHT22;38105;52.968;5.974;2022-07-21T06:09:26;19.30;99.90
52107;DHT22;38105;52.968;5.974;2022-07-21T06:11:52;19.30;99.90
52107;DHT22;38105;52.968;5.974;2022-07-21T06:14:18;19.40;99.90
52107;DHT22;38105;52.968;5.974;2022-07-21T06:16:43;19.60;99.90
52107;DHT22;38105;52.968;5.974;2022-07-21T06:19:09;19.70;99.90
52107;DHT22;38105;52.968;5.974;2022-07-21T06:21:35;20.00;99.90
52107;DHT22;38105;52.968;5.974;2022-07-21T06:24:01;20.20;99.90
52107;DHT22;38105;52.968;5.974;2022-07-21T06:26:27;20.40;99.90
52107;DHT22;38105;52.968;5.974;2022-07-21T06:28:53;20.30;99.90
52107;DHT22;38105;52.968;5.974;2022-07-21T06:31:19;20.40;99.90
52107;DHT22;38105;52.968;5.974;2022-07-21T06:33:45;20.10;99.90
52107;DHT22;38105;52.968;5.974;2022-07-21T06:36:11;20.30;99.90
52107;DHT22;38105;52.968;5.974;2022-07-21T06:38:37;20.60;99.90
52107;DHT22;38105;52.968;5.974;2022-07-21T06:41:03;20.50;99.90
52107;DHT22;38105;52.968;5.974;2022-07-21T06:43:28;20.70;99.90
52107;DHT22;38105;52.968;5.974;2022-07-21T06:45:55;20.80;99.90
52107;DHT22;38105;52.968;5.974;2022-07-21T06:48:21;20.70;99.90
52107;DHT22;38105;52.968;5.974;2022-07-21T06:50:50;20.60;99.90
52107;DHT22;38105;52.968;5.974;2022-07-21T06:53:16;20.60;99.90
52107;DHT22;38105;52.968;5.974;2022-07-21T06:55:41;20.70;99.90
52107;DHT22;38105;52.968;5.974;2022-07-21T06:58:14;20.60;99.90
52107;DHT22;38105;52.968;5.974;2022-07-21T07:00:41;20.50;99.90
52107;DHT22;38105;52.968;5.974;2022-07-21T07:03:07;20.20;99.90
52107;DHT22;38105;52.968;5.974;2022-07-21T07:05:33;20.10;99.90
52107;DHT22;38105;52.968;5.974;2022-07-21T07:07:59;20.30;99.90
52107;DHT22;38105;52.968;5.974;2022-07-21T07:10:26;20.10;99.90
52107;DHT22;38105;52.968;5.974;2022-07-21T07:12:51;20.30;99.90
52107;DHT22;38105;52.968;5.974;2022-07-21T07:15:17;20.10;99.90
52107;DHT22;38105;52.968;5.974;2022-07-21T07:17:43;19.90;99.90
52107;DHT22;38105;52.968;5.974;2022-07-21T07:20:09;19.90;99.90
52107;DHT22;38105;52.968;5.974;2022-07-21T07:22:35;20.00;99.90
52107;DHT22;38105;52.968;5.974;2022-07-21T07:25:01;20.10;99.90
52107;DHT22;38105;52.968;5.974;2022-07-21T07:27:27;19.90;99.90
52107;DHT22;38105;52.968;5.974;2022-07-21T07:29:53;19.90;99.90
52107;DHT22;38105;52.968;5.974;2022-07-21T07:32:18;20.10;99.90
52107;DHT22;38105;52.968;5.974;2022-07-21T07:34:44;19.80;99.90
52107;DHT22;38105;52.968;5.974;2022-07-21T07:37:09;19.90;99.90
52107;DHT22;38105;52.968;5.974;2022-07-21T07:39:35;19.80;99.90
52107;DHT22;38105;52.968;5.974;2022-07-21T07:42:04;19.70;99.90
52107;DHT22;38105;52.968;5.974;2022-07-21T07:44:30;19.90;99.90
52107;DHT22;38105;52.968;5.974;2022-07-21T07:46:56;19.90;99.90
52107;DHT22;38105;52.968;5.974;2022-07-21T07:49:21;19.90;99.90
52107;DHT22;38105;52.968;5.974;2022-07-21T07:51:47;19.70;99.90
52107;DHT22;38105;52.968;5.974;2022-07-21T07:54:14;19.90;99.90
52107;DHT22;38105;52.968;5.974;2022-07-21T07:56:39;19.60;99.90
52107;DHT22;38105;52.968;5.974;2022-07-21T07:59:05;19.80;99.90
52107;DHT22;38105;52.968;5.974;2022-07-21T08:01:31;19.50;99.90
52107;DHT22;38105;52.968;5.974;2022-07-21T08:03:56;19.70;99.90
52107;DHT22;38105;52.968;5.974;2022-07-21T08:06:22;19.40;99.90
52107;DHT22;38105;52.968;5.974;2022-07-21T08:08:48;19.30;99.90
52107;DHT22;38105;52.968;5.974;2022-07-21T08:11:14;19.50;99.90
52107;DHT22;38105;52.968;5.974;2022-07-21T08:13:41;19.40;99.90
52107;DHT22;38105;52.968;5.974;2022-07-21T08:16:07;19.50;99.90
52107;DHT22;38105;52.968;5.974;2022-07-21T08:18:33;19.40;99.90
52107;DHT22;38105;52.968;5.974;2022-07-21T08:20:58;19.20;99.90
52107;DHT22;38105;52.968;5.974;2022-07-21T08:23:24;19.10;99.90
52107;DHT22;38105;52.968;5.974;2022-07-21T08:25:50;19.50;99.90
52107;DHT22;38105;52.968;5.974;2022-07-21T08:28:16;19.40;99.90
52107;DHT22;38105;52.968;5.974;2022-07-21T08:30:42;19.40;99.90
52107;DHT22;38105;52.968;5.974;2022-07-21T08:33:07;19.30;99.90
52107;DHT22;38105;52.968;5.974;2022-07-21T08:35:33;19.20;99.90
52107;DHT22;38105;52.968;5.974;2022-07-21T08:38:05;19.20;99.90
52107;DHT22;38105;52.968;5.974;2022-07-21T08:40:36;19.40;99.90
52107;DHT22;38105;52.968;5.974;2022-07-21T08:43:03;19.60;99.90
52107;DHT22;38105;52.968;5.974;2022-07-21T08:45:29;19.60;99.90
52107;DHT22;38105;52.968;5.974;2022-07-21T08:47:57;19.70;99.90
52107;DHT22;38105;52.968;5.974;2022-07-21T08:50:25;19.50;99.90
52107;DHT22;38105;52.968;5.974;2022-07-21T08:52:50;19.90;99.90
52107;DHT22;38105;52.968;5.974;2022-07-21T08:55:16;19.80;99.90
52107;DHT22;38105;52.968;5.974;2022-07-21T08:57:42;19.60;99.90
52107;DHT22;38105;52.968;5.974;2022-07-21T09:00:09;19.90;99.90
52107;DHT22;38105;52.968;5.974;2022-07-21T09:02:36;19.70;99.90
52107;DHT22;38105;52.968;5.974;2022-07-21T09:05:07;19.80;99.90
52107;DHT22;38105;52.968;5.974;2022-07-21T09:07:51;20.00;99.90
52107;DHT22;38105;52.968;5.974;2022-07-21T09:10:24;20.10;99.90
52107;DHT22;38105;52.968;5.974;2022-07-21T09:12:56;20.00;99.90
52107;DHT22;38105;52.968;5.974;2022-07-21T09:15:24;19.90;99.90
52107;DHT22;38105;52.968;5.974;2022-07-21T09:18:05;20.10;99.90
52107;DHT22;38105;52.968;5.974;2022-07-21T09:20:32;20.00;99.90
52107;DHT22;38105;52.968;5.974;2022-07-21T09:23:06;20.30;99.90
52107;DHT22;38105;52.968;5.974;2022-07-21T09:25:36;20.10;99.90
52107;DHT22;38105;52.968;5.974;2022-07-21T09:28:18;20.40;99.90
52107;DHT22;38105;52.968;5.974;2022-07-21T09:30:55;20.30;99.90
52107;DHT22;38105;52.968;5.974;2022-07-21T09:33:22;20.40;99.90
52107;DHT22;38105;52.968;5.974;2022-07-21T09:35:56;20.40;99.90
52107;DHT22;38105;52.968;5.974;2022-07-21T09:38:22;20.30;99.90
52107;DHT22;38105;52.968;5.974;2022-07-21T09:40:48;20.50;99.90
52107;DHT22;38105;52.968;5.974;2022-07-21T09:43:40;20.60;99.90
52107;DHT22;38105;52.968;5.974;2022-07-21T09:46:12;20.60;99.90
52107;DHT22;38105;52.968;5.974;2022-07-21T09:48:40;20.50;99.90
52107;DHT22;38105;52.968;5.974;2022-07-21T09:51:23;20.60;99.90
52107;DHT22;38105;52.968;5.974;2022-07-21T09:53:55;20.90;99.90
52107;DHT22;38105;52.968;5.974;2022-07-21T09:56:22;20.80;99.90
52107;DHT22;38105;52.968;5.974;2022-07-21T09:58:50;21.00;99.90
52107;DHT22;38105;52.968;5.974;2022-07-21T10:01:16;20.90;99.90
52107;DHT22;38105;52.968;5.974;2022-07-21T10:03:46;20.90;99.90
52107;DHT22;38105;52.968;5.974;2022-07-21T10:06:15;21.10;99.90
52107;DHT22;38105;52.968;5.974;2022-07-21T10:08:42;21.10;99.90
52107;DHT22;38105;52.968;5.974;2022-07-21T10:11:08;21.00;99.90
52107;DHT22;38105;52.968;5.974;2022-07-21T10:13:35;21.20;99.90
52107;DHT22;38105;52.968;5.974;2022-07-21T10:16:02;21.40;99.90
52107;DHT22;38105;52.968;5.974;2022-07-21T10:18:32;21.50;99.90
52107;DHT22;38105;52.968;5.974;2022-07-21T10:21:46;21.40;99.90
52107;DHT22;38105;52.968;5.974;2022-07-21T10:23:54;21.50;99.90
52107;DHT22;38105;52.968;5.974;2022-07-21T10:26:20;21.70;99.90
52107;DHT22;38105;52.968;5.974;2022-07-21T10:28:47;21.80;99.90
52107;DHT22;38105;52.968;5.974;2022-07-21T10:31:21;21.90;99.90
52107;DHT22;38105;52.968;5.974;2022-07-21T10:39:24;22.40;99.90
52107;DHT22;38105;52.968;5.974;2022-07-21T10:41:54;22.30;99.90
52107;DHT22;38105;52.968;5.974;2022-07-21T10:47:18;22.10;99.90
52107;DHT22;38105;52.968;5.974;2022-07-21T10:50:00;22.10;99.90
52107;DHT22;38105;52.968;5.974;2022-07-21T10:57:40;22.20;99.90
52107;DHT22;38105;52.968;5.974;2022-07-21T11:00:20;22.10;99.90
52107;DHT22;38105;52.968;5.974;2022-07-21T11:02:49;22.10;99.90
52107;DHT22;38105;52.968;5.974;2022-07-21T11:05:15;22.10;99.90
52107;DHT22;38105;52.968;5.974;2022-07-21T11:08:09;22.30;99.90
52107;DHT22;38105;52.968;5.974;2022-07-21T11:10:48;22.40;99.90
52107;DHT22;38105;52.968;5.974;2022-07-21T11:13:15;22.40;99.90
52107;DHT22;38105;52.968;5.974;2022-07-21T11:15:48;22.50;99.90
52107;DHT22;38105;52.968;5.974;2022-07-21T11:18:20;22.40;99.90
52107;DHT22;38105;52.968;5.974;2022-07-21T11:23:47;22.30;99.90
52107;DHT22;38105;52.968;5.974;2022-07-21T11:26:16;22.30;99.90
52107;DHT22;38105;52.968;5.974;2022-07-21T11:28:43;22.30;99.90
52107;DHT22;38105;52.968;5.974;2022-07-21T11:33:41;22.00;99.90
52107;DHT22;38105;52.968;5.974;2022-07-21T11:36:07;22.00;99.90
52107;DHT22;38105;52.968;5.974;2022-07-21T11:38:33;21.80;99.90
52107;DHT22;38105;52.968;5.974;2022-07-21T11:41:19;21.80;99.90
52107;DHT22;38105;52.968;5.974;2022-07-21T11:43:46;21.60;99.90
52107;DHT22;38105;52.968;5.974;2022-07-21T11:46:13;21.50;99.90
52107;DHT22;38105;52.968;5.974;2022-07-21T11:48:39;21.40;99.90
52107;DHT22;38105;52.968;5.974;2022-07-21T11:51:05;21.40;99.90
52107;DHT22;38105;52.968;5.974;2022-07-21T11:53:32;21.40;99.90
52107;DHT22;38105;52.968;5.974;2022-07-21T11:55:58;21.30;99.90
52107;DHT22;38105;52.968;5.974;2022-07-21T11:58:23;21.30;99.90
52107;DHT22;38105;52.968;5.974;2022-07-21T12:01:06;21.20;99.90
52107;DHT22;38105;52.968;5.974;2022-07-21T12:03:33;21.40;99.90
52107;DHT22;38105;52.968;5.974;2022-07-21T12:06:00;21.10;99.90
52107;DHT22;38105;52.968;5.974;2022-07-21T12:08:27;21.10;99.90
52107;DHT22;38105;52.968;5.974;2022-07-21T12:11:07;21.10;99.90
52107;DHT22;38105;52.968;5.974;2022-07-21T12:13:53;21.30;99.90
52107;DHT22;38105;52.968;5.974;2022-07-21T12:16:19;21.20;99.90
52107;DHT22;38105;52.968;5.974;2022-07-21T12:18:45;21.30;99.90
52107;DHT22;38105;52.968;5.974;2022-07-21T12:21:10;21.20;99.90
52107;DHT22;38105;52.968;5.974;2022-07-21T12:23:36;21.20;99.90
52107;DHT22;38105;52.968;5.974;2022-07-21T12:26:03;21.20;99.90
52107;DHT22;38105;52.968;5.974;2022-07-21T12:28:49;20.80;99.90
52107;DHT22;38105;52.968;5.974;2022-07-21T12:31:19;21.00;99.90
52107;DHT22;38105;52.968;5.974;2022-07-21T12:33:51;20.80;99.90
52107;DHT22;38105;52.968;5.974;2022-07-21T12:36:19;20.80;99.90
52107;DHT22;38105;52.968;5.974;2022-07-21T12:38:46;20.80;99.90
52107;DHT22;38105;52.968;5.974;2022-07-21T12:41:14;20.90;99.90
52107;DHT22;38105;52.968;5.974;2022-07-21T12:43:40;20.80;99.90
52107;DHT22;38105;52.968;5.974;2022-07-21T12:46:15;20.90;99.90
52107;DHT22;38105;52.968;5.974;2022-07-21T12:48:43;21.00;99.90
52107;DHT22;38105;52.968;5.974;2022-07-21T12:53:52;21.10;99.90
52107;DHT22;38105;52.968;5.974;2022-07-21T12:56:30;20.90;99.90
52107;DHT22;38105;52.968;5.974;2022-07-21T12:58:57;21.10;99.90
52107;DHT22;38105;52.968;5.974;2022-07-21T13:01:24;21.10;99.90
52107;DHT22;38105;52.968;5.974;2022-07-21T13:03:52;20.80;99.90
52107;DHT22;38105;52.968;5.974;2022-07-21T13:06:17;20.80;99.90
52107;DHT22;38105;52.968;5.974;2022-07-21T13:08:45;20.70;99.90
52107;DHT22;38105;52.968;5.974;2022-07-21T13:11:13;20.90;99.90
52107;DHT22;38105;52.968;5.974;2022-07-21T13:13:39;20.90;99.90
52107;DHT22;38105;52.968;5.974;2022-07-21T13:16:06;20.90;99.90
52107;DHT22;38105;52.968;5.974;2022-07-21T13:18:32;20.80;99.90
52107;DHT22;38105;52.968;5.974;2022-07-21T13:20:58;20.70;99.90
52107;DHT22;38105;52.968;5.974;2022-07-21T13:23:24;20.60;99.90
52107;DHT22;38105;52.968;5.974;2022-07-21T13:25:50;20.70;99.90
52107;DHT22;38105;52.968;5.974;2022-07-21T13:28:17;20.50;99.90
52107;DHT22;38105;52.968;5.974;2022-07-21T13:30:44;20.50;99.90
52107;DHT22;38105;52.968;5.974;2022-07-21T13:33:10;20.60;99.90
52107;DHT22;38105;52.968;5.974;2022-07-21T13:35:36;20.90;99.90
52107;DHT22;38105;52.968;5.974;2022-07-21T13:38:02;20.80;99.90
52107;DHT22;38105;52.968;5.974;2022-07-21T13:40:28;21.00;99.90
52107;DHT22;38105;52.968;5.974;2022-07-21T13:42:54;21.20;99.90
52107;DHT22;38105;52.968;5.974;2022-07-21T13:45:21;21.30;99.90
52107;DHT22;38105;52.968;5.974;2022-07-21T13:47:47;21.60;99.90
52107;DHT22;38105;52.968;5.974;2022-07-21T13:50:13;21.50;99.90
52107;DHT22;38105;52.968;5.974;2022-07-21T13:52:39;21.80;99.90
52107;DHT22;38105;52.968;5.974;2022-07-21T13:55:08;21.70;99.90
52107;DHT22;38105;52.968;5.974;2022-07-21T13:57:34;21.70;99.90
52107;DHT22;38105;52.968;5.974;2022-07-21T14:00:08;21.80;99.90
52107;DHT22;38105;52.968;5.974;2022-07-21T14:02:34;22.10;99.90
52107;DHT22;38105;52.968;5.974;2022-07-21T14:05:00;22.00;99.90
52107;DHT22;38105;52.968;5.974;2022-07-21T14:07:25;21.90;99.90
52107;DHT22;38105;52.968;5.974;2022-07-21T14:09:51;22.00;99.90
52107;DHT22;38105;52.968;5.974;2022-07-21T14:12:17;22.00;99.90
52107;DHT22;38105;52.968;5.974;2022-07-21T14:14:44;22.00;99.90
52107;DHT22;38105;52.968;5.974;2022-07-21T14:17:16;22.10;99.90
52107;DHT22;38105;52.968;5.974;2022-07-21T14:19:42;22.10;99.90
52107;DHT22;38105;52.968;5.974;2022-07-21T14:22:10;22.00;99.90
52107;DHT22;38105;52.968;5.974;2022-07-21T14:24:35;22.00;99.90
52107;DHT22;38105;52.968;5.974;2022-07-21T14:27:19;22.00;99.90
52107;DHT22;38105;52.968;5.974;2022-07-21T14:29:45;22.10;99.90
52107;DHT22;38105;52.968;5.974;2022-07-21T14:32:11;22.00;99.90
52107;DHT22;38105;52.968;5.974;2022-07-21T14:34:36;21.80;99.90
52107;DHT22;38105;52.968;5.974;2022-07-21T14:37:02;21.80;99.90
52107;DHT22;38105;52.968;5.974;2022-07-21T14:39:27;21.80;99.90
52107;DHT22;38105;52.968;5.974;2022-07-21T14:41:53;21.70;99.90
52107;DHT22;38105;52.968;5.974;2022-07-21T14:44:19;21.70;99.90
52107;DHT22;38105;52.968;5.974;2022-07-21T14:46:44;21.80;99.90
52107;DHT22;38105;52.968;5.974;2022-07-21T14:49:10;21.40;99.90
52107;DHT22;38105;52.968;5.974;2022-07-21T14:51:35;21.50;99.90
52107;DHT22;38105;52.968;5.974;2022-07-21T14:54:01;21.40;99.90
52107;DHT22;38105;52.968;5.974;2022-07-21T14:56:27;21.50;99.90
52107;DHT22;38105;52.968;5.974;2022-07-21T14:58:53;21.50;99.90
52107;DHT22;38105;52.968;5.974;2022-07-21T15:01:18;21.70;99.90
52107;DHT22;38105;52.968;5.974;2022-07-21T15:03:44;21.80;99.90
52107;DHT22;38105;52.968;5.974;2022-07-21T15:06:09;21.80;99.90
52107;DHT22;38105;52.968;5.974;2022-07-21T15:08:35;21.80;99.90
52107;DHT22;38105;52.968;5.974;2022-07-21T15:11:01;21.80;99.90
52107;DHT22;38105;52.968;5.974;2022-07-21T15:13:26;21.80;99.90
52107;DHT22;38105;52.968;5.974;2022-07-21T15:15:55;21.90;99.90
52107;DHT22;38105;52.968;5.974;2022-07-21T15:18:21;21.80;99.90
52107;DHT22;38105;52.968;5.974;2022-07-21T15:20:46;21.90;99.90
52107;DHT22;38105;52.968;5.974;2022-07-21T15:23:12;21.80;99.90
52107;DHT22;38105;52.968;5.974;2022-07-21T15:25:38;21.70;99.90
52107;DHT22;38105;52.968;5.974;2022-07-21T15:28:04;21.50;99.90
52107;DHT22;38105;52.968;5.974;2022-07-21T15:30:31;21.20;99.90
52107;DHT22;38105;52.968;5.974;2022-07-21T15:32:57;21.20;99.90
52107;DHT22;38105;52.968;5.974;2022-07-21T15:35:23;21.00;99.90
52107;DHT22;38105;52.968;5.974;2022-07-21T15:37:48;20.90;99.90
52107;DHT22;38105;52.968;5.974;2022-07-21T15:40:14;20.90;99.90
52107;DHT22;38105;52.968;5.974;2022-07-21T15:42:41;20.50;99.90
52107;DHT22;38105;52.968;5.974;2022-07-21T15:45:11;20.50;99.90
52107;DHT22;38105;52.968;5.974;2022-07-21T15:47:37;20.20;99.90
52107;DHT22;38105;52.968;5.974;2022-07-21T15:50:03;20.20;99.90
52107;DHT22;38105;52.968;5.974;2022-07-21T15:52:30;20.20;99.90
52107;DHT22;38105;52.968;5.974;2022-07-21T15:54:57;20.00;99.90